createdAt,value
2022-07-26T00:02:00.109Z,2.60
2022-07-26T00:04:33.280Z,3.00
2022-07-26T00:07:06.454Z,2.50
2022-07-26T00:09:39.357Z,2.70
2022-07-26T00:12:13.743Z,2.60
2022-07-26T00:14:46.720Z,2.60
2022-07-26T00:17:19.755Z,2.70
2022-07-26T00:19:52.907Z,3.00
2022-07-26T00:22:40.121Z,2.60
2022-07-26T00:25:13.843Z,2.70
2022-07-26T00:27:46.622Z,2.50
2022-07-26T00:30:19.726Z,2.60
2022-07-26T00:32:53.232Z,2.50
2022-07-26T00:35:26.176Z,2.70
2022-07-26T00:37:59.178Z,2.20
2022-07-26T00:40:32.040Z,3.00
2022-07-26T00:43:06.155Z,2.50
2022-07-26T00:45:41.992Z,2.50
2022-07-26T00:48:15.107Z,2.70
2022-07-26T00:50:49.214Z,2.80
2022-07-26T00:53:25.633Z,2.70
2022-07-26T00:55:58.572Z,2.70
2022-07-26T00:58:31.664Z,2.90
2022-07-26T01:01:04.475Z,3.00
2022-07-26T01:03:39.496Z,2.60
2022-07-26T01:06:13.222Z,2.70
2022-07-26T01:08:46.234Z,2.70
2022-07-26T01:11:19.026Z,2.90
2022-07-26T01:13:53.365Z,2.70
2022-07-26T01:16:26.287Z,2.60
2022-07-26T01:18:59.858Z,2.70
2022-07-26T01:21:36.322Z,2.40
2022-07-26T01:24:11.049Z,2.60
2022-07-26T01:26:44.043Z,2.40
2022-07-26T01:29:17.041Z,3.40
2022-07-26T01:31:50.066Z,2.50
2022-07-26T01:34:23.566Z,2.70
2022-07-26T01:36:57.154Z,3.00
2022-07-26T01:39:29.990Z,2.90
2022-07-26T01:42:02.980Z,2.80
2022-07-26T01:44:36.079Z,3.10
2022-07-26T01:47:09.176Z,2.30
2022-07-26T01:49:41.870Z,2.90
2022-07-26T01:52:15.093Z,2.40
2022-07-26T01:54:48.113Z,2.50
2022-07-26T01:57:20.894Z,2.60
2022-07-26T01:59:53.678Z,2.60
2022-07-26T02:02:27.766Z,2.60
2022-07-26T02:05:00.576Z,3.00
2022-07-26T02:07:42.506Z,3.50
2022-07-26T02:10:18.224Z,2.90
2022-07-26T02:12:51.621Z,2.80
2022-07-26T02:15:24.607Z,3.20
2022-07-26T02:17:57.493Z,2.70
2022-07-26T02:20:31.501Z,3.20
2022-07-26T02:23:05.659Z,3.30
2022-07-26T02:25:38.847Z,2.80
2022-07-26T02:28:11.782Z,2.90
2022-07-26T02:30:45.101Z,2.90
2022-07-26T02:33:18.815Z,2.90
2022-07-26T02:35:52.076Z,3.30
2022-07-26T02:38:25.334Z,3.50
2022-07-26T02:40:58.362Z,3.30
2022-07-26T02:43:32.630Z,3.20
2022-07-26T02:46:05.603Z,2.80
2022-07-26T02:48:38.647Z,3.40
2022-07-26T02:51:12.493Z,3.30
2022-07-26T02:53:45.341Z,2.80
2022-07-26T02:56:18.222Z,3.30
2022-07-26T02:58:51.205Z,3.60
2022-07-26T03:01:24.205Z,3.90
2022-07-26T03:03:57.199Z,4.60
2022-07-26T03:06:30.294Z,5.30
2022-07-26T03:09:03.079Z,4.60
2022-07-26T03:11:35.871Z,5.00
2022-07-26T03:14:09.020Z,5.60
2022-07-26T03:16:42.627Z,5.30
2022-07-26T03:19:15.407Z,5.40
2022-07-26T03:21:48.499Z,5.30
2022-07-26T03:24:21.179Z,5.50
2022-07-26T03:26:55.005Z,5.00
2022-07-26T03:29:27.814Z,5.00
2022-07-26T03:32:00.851Z,5.40
2022-07-26T03:34:34.058Z,6.10
2022-07-26T03:37:06.724Z,6.40
2022-07-26T03:39:40.761Z,6.70
2022-07-26T03:42:13.515Z,6.50
2022-07-26T03:44:47.018Z,7.30
2022-07-26T03:47:20.017Z,6.30
2022-07-26T03:49:52.804Z,6.80
2022-07-26T03:52:25.600Z,6.90
2022-07-26T03:54:58.260Z,7.10
2022-07-26T03:57:31.030Z,7.10
2022-07-26T04:00:03.814Z,7.40
2022-07-26T04:02:40.277Z,7.40
2022-07-26T04:05:14.083Z,8.30
2022-07-26T04:07:52.640Z,7.30
2022-07-26T04:10:26.531Z,7.70
2022-07-26T04:12:59.391Z,8.40
2022-07-26T04:15:32.280Z,7.60
2022-07-26T04:18:05.208Z,7.90
2022-07-26T04:20:38.031Z,8.80
2022-07-26T04:23:11.435Z,8.40
2022-07-26T04:25:45.382Z,9.70
2022-07-26T04:28:18.776Z,9.40
2022-07-26T04:30:52.299Z,9.00
2022-07-26T04:33:25.823Z,8.00
2022-07-26T04:35:58.545Z,8.40
2022-07-26T04:38:31.529Z,9.70
2022-07-26T04:41:04.463Z,8.60
2022-07-26T04:43:37.509Z,9.30
2022-07-26T04:46:10.738Z,8.50
2022-07-26T04:48:43.928Z,8.10
2022-07-26T04:51:16.763Z,8.10
2022-07-26T04:53:49.611Z,8.10
2022-07-26T04:56:22.741Z,7.70
2022-07-26T04:58:55.458Z,8.00
2022-07-26T05:01:28.579Z,7.50
2022-07-26T05:04:01.853Z,7.10
2022-07-26T05:06:35.506Z,6.60
2022-07-26T05:09:09.313Z,6.00
2022-07-26T05:11:42.195Z,6.10
2022-07-26T05:14:14.972Z,5.00
2022-07-26T05:16:48.942Z,5.80
2022-07-26T05:19:22.072Z,5.10
2022-07-26T05:21:55.170Z,5.30
2022-07-26T05:24:27.960Z,5.90
2022-07-26T05:27:00.963Z,4.50
2022-07-26T05:29:33.749Z,4.30
2022-07-26T05:32:07.569Z,4.00
2022-07-26T05:34:40.395Z,4.00
2022-07-26T05:37:13.949Z,4.00
2022-07-26T05:39:46.883Z,3.80
2022-07-26T05:42:19.679Z,3.20
2022-07-26T05:44:52.652Z,3.50
2022-07-26T05:47:25.742Z,3.90
2022-07-26T05:49:58.611Z,3.70
2022-07-26T05:52:31.348Z,3.70
2022-07-26T05:55:04.086Z,4.50
2022-07-26T05:57:36.980Z,3.80
2022-07-26T06:00:13.067Z,4.00
2022-07-26T06:02:46.171Z,4.20
2022-07-26T06:05:19.443Z,3.70
2022-07-26T06:07:52.270Z,4.10
2022-07-26T06:10:24.893Z,3.80
2022-07-26T06:12:57.782Z,3.50
2022-07-26T06:15:30.576Z,3.50
2022-07-26T06:18:03.378Z,4.00
2022-07-26T06:20:39.485Z,4.00
2022-07-26T06:23:13.132Z,3.90
2022-07-26T06:25:46.278Z,3.50
2022-07-26T06:28:19.161Z,3.60
2022-07-26T06:30:51.939Z,3.40
2022-07-26T06:33:24.868Z,3.80
2022-07-26T06:35:57.830Z,4.10
2022-07-26T06:38:31.144Z,3.60
2022-07-26T06:41:04.533Z,3.60
2022-07-26T06:43:37.587Z,3.90
2022-07-26T06:46:10.892Z,3.50
2022-07-26T06:48:47.248Z,3.10
2022-07-26T06:51:20.341Z,3.90
2022-07-26T07:07:08.979Z,2.90
2022-07-26T07:09:42.171Z,3.60
2022-07-26T07:12:15.676Z,2.80
2022-07-26T07:14:48.558Z,2.90
2022-07-26T07:17:23.087Z,3.20
2022-07-26T07:19:55.973Z,3.20
2022-07-26T07:22:28.870Z,3.70
2022-07-26T07:25:02.963Z,3.30
2022-07-26T07:27:35.879Z,3.70
2022-07-26T07:30:11.143Z,3.50
2022-07-26T07:32:44.119Z,3.40
2022-07-26T07:35:17.363Z,2.80
2022-07-26T07:37:54.156Z,3.50
2022-07-26T07:40:27.130Z,3.00
2022-07-26T07:43:03.294Z,3.30
2022-07-26T07:45:36.152Z,3.10
2022-07-26T07:48:09.814Z,3.40
2022-07-26T07:50:42.681Z,3.20
2022-07-26T07:53:15.678Z,3.60
2022-07-26T07:55:48.427Z,3.30
2022-07-26T07:58:22.707Z,3.10
2022-07-26T08:00:56.170Z,2.80
2022-07-26T08:03:38.673Z,3.00
2022-07-26T08:06:13.306Z,3.10
2022-07-26T08:08:48.467Z,3.00
2022-07-26T08:11:21.485Z,3.20
2022-07-26T08:13:54.292Z,2.90
2022-07-26T08:16:27.933Z,2.90
2022-07-26T08:19:01.011Z,3.10
2022-07-26T08:21:35.593Z,3.00
2022-07-26T08:24:11.019Z,3.00
2022-07-26T08:26:43.596Z,2.70
2022-07-26T08:29:16.677Z,2.70
2022-07-26T08:31:51.040Z,3.20
2022-07-26T08:34:23.783Z,2.30
2022-07-26T08:37:16.137Z,3.00
2022-07-26T08:39:49.664Z,2.70
2022-07-26T08:42:24.514Z,2.60
2022-07-26T08:45:09.921Z,2.40
2022-07-26T08:48:07.491Z,2.20
2022-07-26T08:50:36.870Z,2.40
2022-07-26T08:53:12.191Z,2.70
2022-07-26T08:56:05.830Z,2.60
2022-07-26T08:58:40.945Z,2.60
2022-07-26T09:01:15.298Z,2.90
2022-07-26T09:03:49.052Z,2.90
2022-07-26T09:06:28.351Z,2.70
2022-07-26T09:09:13.661Z,2.80
2022-07-26T09:11:46.259Z,2.60
2022-07-26T09:14:18.835Z,2.20
2022-07-26T09:17:02.717Z,2.80
2022-07-26T09:19:36.771Z,2.40
2022-07-26T09:22:17.174Z,2.60
2022-07-26T09:24:51.037Z,2.70
2022-07-26T09:27:27.978Z,2.50
2022-07-26T09:30:09.085Z,2.40
2022-07-26T09:32:41.676Z,2.40
2022-07-26T09:35:45.820Z,2.20
2022-07-26T09:38:19.486Z,2.30
2022-07-26T09:40:55.575Z,2.80
2022-07-26T09:43:39.182Z,2.70
2022-07-26T09:46:11.891Z,2.30
2022-07-26T09:51:43.468Z,2.10
2022-07-26T09:54:31.635Z,2.20
2022-07-26T09:57:05.169Z,2.30
2022-07-26T09:59:37.847Z,2.10
2022-07-26T10:02:10.569Z,2.10
2022-07-26T10:04:44.665Z,2.20
2022-07-26T10:07:18.270Z,1.80
2022-07-26T10:09:58.781Z,2.00
2022-07-26T10:12:34.288Z,1.90
2022-07-26T10:15:08.156Z,2.00
2022-07-26T10:17:49.498Z,2.20
2022-07-26T10:20:48.782Z,1.80
2022-07-26T10:23:43.324Z,1.90
2022-07-26T10:26:38.426Z,2.10
2022-07-26T10:29:31.323Z,2.10
2022-07-26T10:32:22.827Z,2.10
2022-07-26T10:34:55.419Z,2.20
2022-07-26T10:37:30.858Z,2.10
2022-07-26T10:40:30.183Z,2.10
2022-07-26T10:43:40.251Z,2.10
2022-07-26T10:46:29.742Z,2.20
2022-07-26T10:49:06.766Z,2.10
2022-07-26T10:51:42.310Z,2.20
2022-07-26T10:54:17.729Z,2.10
2022-07-26T10:56:50.346Z,2.10
2022-07-26T10:59:54.924Z,2.00
2022-07-26T11:02:32.385Z,1.70
2022-07-26T11:05:13.237Z,1.80
2022-07-26T11:08:05.398Z,2.00
2022-07-26T11:10:41.784Z,1.90
2022-07-26T11:13:18.088Z,1.80
2022-07-26T11:15:54.686Z,1.90
2022-07-26T11:18:32.858Z,2.10
2022-07-26T11:21:18.232Z,1.70
2022-07-26T11:23:52.262Z,1.80
2022-07-26T11:26:25.710Z,2.00
2022-07-26T11:29:06.416Z,1.90
2022-07-26T11:31:51.520Z,2.00
2022-07-26T11:34:35.297Z,1.60
2022-07-26T11:37:08.794Z,2.10
2022-07-26T11:39:41.504Z,1.90
2022-07-26T11:42:17.154Z,1.80
2022-07-26T11:44:51.401Z,1.70
2022-07-26T11:47:26.631Z,2.20
2022-07-26T11:50:16.999Z,1.90
2022-07-26T11:52:56.698Z,2.00
2022-07-26T11:55:33.516Z,2.00
2022-07-26T11:58:09.734Z,2.10
2022-07-26T12:00:42.403Z,1.90
2022-07-26T12:03:15.312Z,1.90
2022-07-26T12:06:04.857Z,2.20
2022-07-26T12:08:46.450Z,2.10
2022-07-26T12:11:21.475Z,1.80
2022-07-26T12:14:03.827Z,2.00
2022-07-26T12:16:46.137Z,1.70
2022-07-26T12:19:33.220Z,2.30
2022-07-26T12:22:14.432Z,2.10
2022-07-26T12:24:58.314Z,2.00
2022-07-26T12:27:34.448Z,2.00
2022-07-26T12:30:20.057Z,2.00
2022-07-26T12:32:54.982Z,2.00
2022-07-26T12:35:35.934Z,1.90
2022-07-26T12:38:08.536Z,2.20
2022-07-26T12:40:47.613Z,2.00
2022-07-26T12:43:20.225Z,2.50
2022-07-26T12:45:52.916Z,3.10
2022-07-26T12:48:25.640Z,2.20
2022-07-26T12:50:59.918Z,2.30
2022-07-26T12:53:37.071Z,2.40
2022-07-26T12:56:10.209Z,2.20
2022-07-26T12:58:42.819Z,2.30
2022-07-26T13:01:15.610Z,2.00
2022-07-26T13:03:48.348Z,2.20
2022-07-26T13:06:21.125Z,2.20
2022-07-26T13:08:53.989Z,3.10
2022-07-26T13:11:26.795Z,2.20
2022-07-26T13:13:59.882Z,2.60
2022-07-26T13:16:32.597Z,2.30
2022-07-26T13:19:05.389Z,2.30
2022-07-26T13:21:38.167Z,2.30
2022-07-26T13:24:12.190Z,2.50
2022-07-26T13:26:46.207Z,2.00
2022-07-26T13:29:18.779Z,2.80
2022-07-26T13:31:52.202Z,2.80
2022-07-26T13:34:25.061Z,2.00
2022-07-26T13:36:58.040Z,2.20
2022-07-26T13:39:31.823Z,2.00
2022-07-26T13:42:04.950Z,2.20
2022-07-26T13:44:37.718Z,2.40
2022-07-26T13:47:11.324Z,2.40
2022-07-26T13:49:44.517Z,2.60
2022-07-26T13:52:17.320Z,2.20
2022-07-26T13:54:50.034Z,2.80
2022-07-26T13:57:22.699Z,2.30
2022-07-26T13:59:55.882Z,2.40
2022-07-26T14:02:28.826Z,2.50
2022-07-26T14:05:01.439Z,2.20
2022-07-26T14:07:34.191Z,2.60
2022-07-26T14:10:07.486Z,2.60
2022-07-26T14:12:40.917Z,2.30
2022-07-26T14:15:21.200Z,2.60
2022-07-26T14:17:55.468Z,2.40
2022-07-26T14:20:28.689Z,2.20
2022-07-26T14:23:01.378Z,1.90
2022-07-26T14:25:34.058Z,2.30
2022-07-26T14:28:06.984Z,2.40
2022-07-26T14:30:39.736Z,2.20
2022-07-26T14:33:12.450Z,1.90
2022-07-26T14:35:45.595Z,2.10
2022-07-26T14:38:24.290Z,2.20
2022-07-26T14:41:01.309Z,2.60
2022-07-26T14:43:33.997Z,2.30
2022-07-26T14:46:07.027Z,2.10
2022-07-26T14:48:53.984Z,3.20
2022-07-26T14:51:28.425Z,2.30
2022-07-26T14:54:00.979Z,2.80
2022-07-26T14:56:33.772Z,2.10
2022-07-26T14:59:06.692Z,2.40
2022-07-26T15:01:39.251Z,2.30
2022-07-26T15:04:12.628Z,2.30
2022-07-26T15:06:45.503Z,1.80
2022-07-26T15:09:18.803Z,2.20
2022-07-26T15:11:51.659Z,1.80
2022-07-26T15:14:24.677Z,2.20
2022-07-26T15:16:57.529Z,3.10
2022-07-26T15:19:30.298Z,2.00
2022-07-26T15:22:02.973Z,4.30
2022-07-26T15:24:39.795Z,1.90
2022-07-26T15:27:12.747Z,2.20
2022-07-26T15:29:47.050Z,1.90
2022-07-26T15:32:21.050Z,2.80
2022-07-26T15:34:54.079Z,3.80
2022-07-26T15:37:26.846Z,2.20
2022-07-26T15:39:59.559Z,2.30
2022-07-26T15:42:34.460Z,2.00
2022-07-26T15:45:09.322Z,2.00
2022-07-26T15:47:54.731Z,1.70
2022-07-26T15:50:30.120Z,2.00
2022-07-26T15:53:02.704Z,2.00
2022-07-26T15:55:35.591Z,2.30
2022-07-26T15:58:08.271Z,2.40
2022-07-26T16:00:41.176Z,1.90
2022-07-26T16:03:14.119Z,1.90
2022-07-26T16:05:47.902Z,1.70
2022-07-26T16:08:21.025Z,1.80
2022-07-26T16:10:53.847Z,1.80
2022-07-26T16:13:26.551Z,1.60
2022-07-26T16:15:59.228Z,2.00
2022-07-26T16:18:31.959Z,1.90
2022-07-26T16:21:05.158Z,1.60
2022-07-26T16:23:38.289Z,1.80
2022-07-26T16:26:11.186Z,1.90
2022-07-26T16:28:44.193Z,1.50
2022-07-26T16:31:17.204Z,2.20
2022-07-26T16:33:50.125Z,2.20
2022-07-26T16:36:23.005Z,2.00
2022-07-26T16:38:56.056Z,3.10
2022-07-26T16:41:29.496Z,2.10
2022-07-26T16:44:02.381Z,2.70
2022-07-26T16:46:35.615Z,2.30
2022-07-26T16:49:08.893Z,2.70
2022-07-26T16:51:42.393Z,2.60
2022-07-26T16:54:15.245Z,2.30
2022-07-26T16:56:48.744Z,2.10
2022-07-26T16:59:21.734Z,2.50
2022-07-26T17:01:55.289Z,2.80
2022-07-26T17:04:28.217Z,2.10
2022-07-26T17:07:24.411Z,1.90
2022-07-26T17:09:53.866Z,2.40
2022-07-26T17:12:27.263Z,2.90
2022-07-26T17:15:00.734Z,1.90
2022-07-26T17:17:33.538Z,2.50
2022-07-26T17:20:08.025Z,2.20
2022-07-26T17:22:41.463Z,2.70
2022-07-26T17:25:14.915Z,2.30
2022-07-26T17:27:47.873Z,2.20
2022-07-26T17:30:21.067Z,2.40
2022-07-26T17:32:54.145Z,1.80
2022-07-26T17:35:27.415Z,1.80
2022-07-26T17:38:00.294Z,2.00
2022-07-26T17:40:33.920Z,2.00
2022-07-26T17:43:06.985Z,2.00
2022-07-26T17:45:39.816Z,1.90
2022-07-26T17:48:13.284Z,1.60
2022-07-26T17:50:46.276Z,1.70
2022-07-26T17:53:21.801Z,1.90
2022-07-26T17:56:08.108Z,2.10
2022-07-26T17:58:41.359Z,1.90
2022-07-26T18:01:14.111Z,1.90
2022-07-26T18:03:47.056Z,1.80
2022-07-26T18:06:20.098Z,2.30
2022-07-26T18:08:52.964Z,2.50
2022-07-26T18:11:25.861Z,2.30
2022-07-26T18:13:58.703Z,2.50
2022-07-26T18:16:31.805Z,2.20
2022-07-26T18:19:05.189Z,2.20
2022-07-26T18:21:38.235Z,2.20
2022-07-26T18:24:18.009Z,2.10
2022-07-26T18:26:50.902Z,2.10
2022-07-26T18:29:23.989Z,2.20
2022-07-26T18:31:58.925Z,2.60
2022-07-26T18:34:32.117Z,2.00
2022-07-26T18:37:05.510Z,2.00
2022-07-26T18:39:38.704Z,1.90
2022-07-26T18:42:11.958Z,2.20
2022-07-26T18:44:45.137Z,1.80
2022-07-26T18:47:18.066Z,1.80
2022-07-26T18:49:51.440Z,1.70
2022-07-26T18:52:31.741Z,1.80
2022-07-26T18:55:10.148Z,2.10
2022-07-26T18:57:44.025Z,1.80
2022-07-26T19:00:21.364Z,1.50
2022-07-26T19:02:54.896Z,1.70
2022-07-26T19:05:31.110Z,1.90
2022-07-26T19:08:08.699Z,1.80
2022-07-26T19:10:41.868Z,1.80
2022-07-26T19:13:14.814Z,1.90
2022-07-26T19:15:48.021Z,1.70
2022-07-26T19:18:21.138Z,1.90
2022-07-26T19:20:54.135Z,1.80
2022-07-26T19:23:27.534Z,1.80
2022-07-26T19:26:00.447Z,2.00
2022-07-26T19:28:33.535Z,2.00
2022-07-26T19:31:06.728Z,1.70
2022-07-26T19:33:39.830Z,1.80
2022-07-26T19:36:13.028Z,2.00
2022-07-26T19:38:51.267Z,1.80
2022-07-26T19:41:24.170Z,1.80
2022-07-26T19:43:57.218Z,2.10
2022-07-26T19:46:30.257Z,2.10
2022-07-26T19:49:05.034Z,1.90
2022-07-26T19:51:38.273Z,1.80
2022-07-26T19:54:11.918Z,1.90
2022-07-26T19:56:45.026Z,1.90
2022-07-26T19:59:23.022Z,1.80
2022-07-26T20:01:58.381Z,1.80
2022-07-26T20:04:31.673Z,1.80
2022-07-26T20:07:04.752Z,1.70
2022-07-26T20:09:37.544Z,1.60
2022-07-26T20:12:11.208Z,2.00
2022-07-26T20:14:44.270Z,2.00
2022-07-26T20:17:19.081Z,2.10
2022-07-26T20:19:52.427Z,2.70
2022-07-26T20:22:25.253Z,2.10
2022-07-26T20:24:58.051Z,2.20
2022-07-26T20:27:31.048Z,1.70
2022-07-26T20:30:05.128Z,1.70
2022-07-26T20:32:38.144Z,2.20
2022-07-26T20:35:11.929Z,2.20
2022-07-26T20:37:44.882Z,2.50
2022-07-26T20:40:18.629Z,2.50
2022-07-26T20:42:51.725Z,2.10
2022-07-26T20:45:25.357Z,2.10
2022-07-26T20:47:58.524Z,2.10
2022-07-26T20:50:31.402Z,1.50
2022-07-26T20:53:04.346Z,2.20
2022-07-26T20:55:37.402Z,1.70
2022-07-26T20:58:10.286Z,1.80
2022-07-26T21:00:43.665Z,1.90
2022-07-26T21:03:17.198Z,1.90
2022-07-26T21:05:50.353Z,2.00
2022-07-26T21:08:23.389Z,2.20
2022-07-26T21:10:56.323Z,1.70
2022-07-26T21:13:29.305Z,1.80
2022-07-26T21:16:02.198Z,2.00
2022-07-26T21:18:35.157Z,2.10
2022-07-26T21:21:08.547Z,1.90
2022-07-26T21:23:41.398Z,2.20
2022-07-26T21:26:14.362Z,2.10
2022-07-26T21:28:47.236Z,2.10
2022-07-26T21:31:20.746Z,1.60
2022-07-26T21:33:53.818Z,2.20
2022-07-26T21:36:26.510Z,1.80
2022-07-26T21:38:59.231Z,2.00
2022-07-26T21:41:32.200Z,2.10
2022-07-26T21:44:05.622Z,1.90
2022-07-26T21:46:38.642Z,2.00
2022-07-26T21:49:11.841Z,2.10
2022-07-26T21:51:44.830Z,2.00
2022-07-26T21:54:17.619Z,2.20
2022-07-26T21:56:51.110Z,1.80
2022-07-26T21:59:23.999Z,1.70
2022-07-26T22:01:56.968Z,2.10
2022-07-26T22:04:31.242Z,2.00
2022-07-26T22:07:04.188Z,2.00
2022-07-26T22:09:40.069Z,2.10
2022-07-26T22:12:14.286Z,1.70
2022-07-26T22:14:47.302Z,2.00
2022-07-26T22:17:20.331Z,1.90
2022-07-26T22:19:53.221Z,2.10
2022-07-26T22:22:26.099Z,2.10
2022-07-26T22:24:59.007Z,1.70
2022-07-26T22:27:32.275Z,2.00
2022-07-26T22:30:06.104Z,1.70
2022-07-26T22:32:39.376Z,1.80
2022-07-26T22:35:13.654Z,1.70
2022-07-26T22:37:46.724Z,1.70
2022-07-26T22:40:19.719Z,1.90
2022-07-26T22:42:52.874Z,1.80
2022-07-26T22:45:26.123Z,1.90
2022-07-26T22:47:59.344Z,2.00
2022-07-26T22:50:32.957Z,1.90
2022-07-26T22:53:06.101Z,1.90
2022-07-26T22:55:38.819Z,1.70
2022-07-26T22:58:11.594Z,2.20
2022-07-26T23:00:44.572Z,1.80
2022-07-26T23:03:19.826Z,2.00
2022-07-26T23:05:54.460Z,1.80
2022-07-26T23:08:46.383Z,2.00
2022-07-26T23:11:19.742Z,2.00
2022-07-26T23:13:59.032Z,2.00
2022-07-26T23:16:32.262Z,1.90
2022-07-26T23:19:05.459Z,1.90
2022-07-26T23:21:38.307Z,2.10
2022-07-26T23:24:11.668Z,2.10
2022-07-26T23:26:44.451Z,2.20
2022-07-26T23:29:17.275Z,1.90
2022-07-26T23:31:50.282Z,1.90
2022-07-26T23:34:23.217Z,2.10
2022-07-26T23:36:56.026Z,2.00
2022-07-26T23:39:29.212Z,1.80
2022-07-26T23:42:03.297Z,2.30
2022-07-26T23:44:36.342Z,2.00
2022-07-26T23:47:09.469Z,2.10
2022-07-26T23:49:42.256Z,2.20
2022-07-26T23:52:15.034Z,2.30
2022-07-26T23:54:48.332Z,2.20
2022-07-26T23:57:21.226Z,2.30
2022-07-26T23:59:54.064Z,2.40
